sensor_id;sensor_type;location;lat;lon;timestamp;pressure;altitude;pressure_sealevel;temperature;humidity
59877;BME280;45749;51.140;17.184;2023-03-20T00:01:15;100095.06;;;9.33;71.14
59877;BME280;45749;51.140;17.184;2023-03-20T00:03:42;100092.44;;;9.33;71.13
59877;BME280;45749;51.140;17.184;2023-03-20T00:06:18;100089.72;;;9.35;71.11
59877;BME280;45749;51.140;17.184;2023-03-20T00:08:46;100091.25;;;9.37;71.09
59877;BME280;45749;51.140;17.184;2023-03-20T00:11:27;100092.22;;;9.36;71.19
59877;BME280;45749;51.140;17.184;2023-03-20T00:14:16;100088.63;;;9.37;71.05
59877;BME280;45749;51.140;17.184;2023-03-20T00:16:42;100091.91;;;9.41;70.87
59877;BME280;45749;51.140;17.184;2023-03-20T00:19:27;100087.56;;;9.40;71.08
59877;BME280;45749;51.140;17.184;2023-03-20T00:21:56;100084.84;;;9.42;70.79
59877;BME280;45749;51.140;17.184;2023-03-20T00:24:23;100094.41;;;9.43;70.88
59877;BME280;45749;51.140;17.184;2023-03-20T00:26:50;100090.19;;;9.40;71.08
59877;BME280;45749;51.140;17.184;2023-03-20T00:29:24;100091.16;;;9.39;71.10
59877;BME280;45749;51.140;17.184;2023-03-20T00:31:50;100090.41;;;9.37;71.05
59877;BME280;45749;51.140;17.184;2023-03-20T00:34:18;100089.59;;;9.36;71.32
59877;BME280;45749;51.140;17.184;2023-03-20T00:36:44;100089.50;;;9.38;71.21
59877;BME280;45749;51.140;17.184;2023-03-20T00:39:09;100090.31;;;9.38;71.27
59877;BME280;45749;51.140;17.184;2023-03-20T00:44:15;100086.63;;;9.41;71.31
59877;BME280;45749;51.140;17.184;2023-03-20T00:46:44;100081.47;;;9.39;71.28
59877;BME280;45749;51.140;17.184;2023-03-20T00:49:10;100084.09;;;9.39;71.20
59877;BME280;45749;51.140;17.184;2023-03-20T00:51:36;100078.97;;;9.38;71.31
59877;BME280;45749;51.140;17.184;2023-03-20T00:54:11;100081.59;;;9.38;71.72
59877;BME280;45749;51.140;17.184;2023-03-20T00:56:41;100083.47;;;9.36;71.85
59877;BME280;45749;51.140;17.184;2023-03-20T00:59:13;100082.63;;;9.35;72.20
59877;BME280;45749;51.140;17.184;2023-03-20T01:01:40;100084.31;;;9.36;72.16
59877;BME280;45749;51.140;17.184;2023-03-20T01:04:11;100090.31;;;9.38;72.47
59877;BME280;45749;51.140;17.184;2023-03-20T01:06:37;100088.53;;;9.39;72.59
59877;BME280;45749;51.140;17.184;2023-03-20T01:09:03;100080.63;;;9.39;72.62
59877;BME280;45749;51.140;17.184;2023-03-20T01:11:29;100083.25;;;9.39;72.71
59877;BME280;45749;51.140;17.184;2023-03-20T01:13:55;100078.00;;;9.39;72.74
59877;BME280;45749;51.140;17.184;2023-03-20T01:16:23;100076.41;;;9.36;72.89
59877;BME280;45749;51.140;17.184;2023-03-20T01:18:50;100076.41;;;9.36;73.62
59877;BME280;45749;51.140;17.184;2023-03-20T01:21:17;100075.66;;;9.34;73.51
59877;BME280;45749;51.140;17.184;2023-03-20T01:23:43;100074.00;;;9.33;73.67
59877;BME280;45749;51.140;17.184;2023-03-20T01:26:31;100086.22;;;9.34;73.89
59877;BME280;45749;51.140;17.184;2023-03-20T01:28:58;100086.22;;;9.34;74.18
59877;BME280;45749;51.140;17.184;2023-03-20T01:31:24;100077.47;;;9.34;74.17
59877;BME280;45749;51.140;17.184;2023-03-20T01:33:50;100080.09;;;9.34;74.64
59877;BME280;45749;51.140;17.184;2023-03-20T01:36:19;100083.69;;;9.33;75.19
59877;BME280;45749;51.140;17.184;2023-03-20T01:38:54;100078.31;;;9.34;75.17
59877;BME280;45749;51.140;17.184;2023-03-20T01:41:22;100075.66;;;9.34;75.26
59877;BME280;45749;51.140;17.184;2023-03-20T01:43:48;100083.56;;;9.34;75.91
59877;BME280;45749;51.140;17.184;2023-03-20T01:51:17;100081.06;;;9.33;76.48
59877;BME280;45749;51.140;17.184;2023-03-20T01:53:44;100081.81;;;9.35;77.11
59877;BME280;45749;51.140;17.184;2023-03-20T01:56:14;100086.22;;;9.34;77.49
59877;BME280;45749;51.140;17.184;2023-03-20T01:58:43;100091.47;;;9.34;77.85
59877;BME280;45749;51.140;17.184;2023-03-20T02:01:11;100089.72;;;9.35;78.61
59877;BME280;45749;51.140;17.184;2023-03-20T02:03:39;100087.16;;;9.33;79.12
59877;BME280;45749;51.140;17.184;2023-03-20T02:06:07;100091.72;;;9.31;78.57
59877;BME280;45749;51.140;17.184;2023-03-20T02:08:39;100087.16;;;9.33;78.67
59877;BME280;45749;51.140;17.184;2023-03-20T02:11:06;100086.22;;;9.34;79.06
59877;BME280;45749;51.140;17.184;2023-03-20T02:13:33;100093.28;;;9.34;79.43
59877;BME280;45749;51.140;17.184;2023-03-20T02:18:28;100091.59;;;9.33;80.07
59877;BME280;45749;51.140;17.184;2023-03-20T02:24:21;100081.91;;;9.33;79.97
59877;BME280;45749;51.140;17.184;2023-03-20T02:38:24;100080.00;;;9.35;81.21
59877;BME280;45749;51.140;17.184;2023-03-20T02:41:16;100085.28;;;9.35;81.87
59877;BME280;45749;51.140;17.184;2023-03-20T02:52:19;100084.22;;;9.38;83.06
59877;BME280;45749;51.140;17.184;2023-03-20T03:02:51;100081.69;;;9.36;84.52
59877;BME280;45749;51.140;17.184;2023-03-20T03:05:26;100081.59;;;9.38;84.54
59877;BME280;45749;51.140;17.184;2023-03-20T03:07:56;100078.00;;;9.39;84.72
59877;BME280;45749;51.140;17.184;2023-03-20T03:10:30;100079.06;;;9.36;85.52
59877;BME280;45749;51.140;17.184;2023-03-20T03:12:59;100083.69;;;9.33;86.01
59877;BME280;45749;51.140;17.184;2023-03-20T03:15:36;100080.84;;;9.36;85.78
59877;BME280;45749;51.140;17.184;2023-03-20T03:18:05;100072.00;;;9.37;85.76
59877;BME280;45749;51.140;17.184;2023-03-20T03:20:38;100082.22;;;9.42;86.25
59877;BME280;45749;51.140;17.184;2023-03-20T03:23:05;100073.47;;;9.41;86.39
59877;BME280;45749;51.140;17.184;2023-03-20T03:25:37;100076.94;;;9.42;86.25
59877;BME280;45749;51.140;17.184;2023-03-20T03:28:16;100077.66;;;9.44;86.61
59877;BME280;45749;51.140;17.184;2023-03-20T03:30:46;100071.56;;;9.43;86.71
59877;BME280;45749;51.140;17.184;2023-03-20T03:33:24;100071.47;;;9.45;86.69
59877;BME280;45749;51.140;17.184;2023-03-20T03:36:04;100075.75;;;9.46;86.25
59877;BME280;45749;51.140;17.184;2023-03-20T03:38:42;100074.59;;;9.50;86.14
59877;BME280;45749;51.140;17.184;2023-03-20T03:41:21;100083.22;;;9.52;86.44
59877;BME280;45749;51.140;17.184;2023-03-20T03:44:17;100074.38;;;9.53;86.56
59877;BME280;45749;51.140;17.184;2023-03-20T03:49:20;100072.47;;;9.55;86.87
59877;BME280;45749;51.140;17.184;2023-03-20T03:51:49;100074.16;;;9.56;87.34
59877;BME280;45749;51.140;17.184;2023-03-20T03:54:23;100065.50;;;9.54;87.06
59877;BME280;45749;51.140;17.184;2023-03-20T03:56:52;100061.94;;;9.55;87.40
59877;BME280;45749;51.140;17.184;2023-03-20T03:59:23;100064.66;;;9.53;87.36
59877;BME280;45749;51.140;17.184;2023-03-20T04:01:51;100068.25;;;9.52;87.50
59877;BME280;45749;51.140;17.184;2023-03-20T04:04:19;100069.22;;;9.51;87.54
59877;BME280;45749;51.140;17.184;2023-03-20T04:06:46;100077.00;;;9.53;87.69
59877;BME280;45749;51.140;17.184;2023-03-20T04:09:12;100080.69;;;9.50;87.83
59877;BME280;45749;51.140;17.184;2023-03-20T04:11:37;100077.34;;;9.48;88.10
59877;BME280;45749;51.140;17.184;2023-03-20T04:14:03;100072.91;;;9.49;88.28
59877;BME280;45749;51.140;17.184;2023-03-20T04:16:28;100076.38;;;9.49;88.01
59877;BME280;45749;51.140;17.184;2023-03-20T04:18:53;100077.34;;;9.48;88.52
59877;BME280;45749;51.140;17.184;2023-03-20T04:21:20;100080.06;;;9.47;88.23
59877;BME280;45749;51.140;17.184;2023-03-20T04:23:46;100083.53;;;9.47;88.47
59877;BME280;45749;51.140;17.184;2023-03-20T04:26:12;100086.09;;;9.49;88.21
59877;BME280;45749;51.140;17.184;2023-03-20T04:28:37;100085.34;;;9.47;88.45
59877;BME280;45749;51.140;17.184;2023-03-20T04:31:03;100085.47;;;9.45;88.64
59877;BME280;45749;51.140;17.184;2023-03-20T04:33:28;100076.94;;;9.42;88.75
59877;BME280;45749;51.140;17.184;2023-03-20T04:35:54;100081.13;;;9.44;88.89
59877;BME280;45749;51.140;17.184;2023-03-20T04:38:20;100082.00;;;9.45;88.68
59877;BME280;45749;51.140;17.184;2023-03-20T04:40:47;100090.59;;;9.47;88.82
59877;BME280;45749;51.140;17.184;2023-03-20T04:43:14;100088.94;;;9.46;88.85
59877;BME280;45749;51.140;17.184;2023-03-20T04:45:40;100083.66;;;9.46;88.99
59877;BME280;45749;51.140;17.184;2023-03-20T04:48:06;100089.03;;;9.44;89.17
59877;BME280;45749;51.140;17.184;2023-03-20T04:50:32;100088.94;;;9.46;89.32
59877;BME280;45749;51.140;17.184;2023-03-20T04:52:57;100089.78;;;9.46;89.17
59877;BME280;45749;51.140;17.184;2023-03-20T04:55:23;100093.25;;;9.47;89.09
59877;BME280;45749;51.140;17.184;2023-03-20T04:57:49;100099.13;;;9.50;88.96
59877;BME280;45749;51.140;17.184;2023-03-20T05:00:15;100098.19;;;9.51;89.01
59877;BME280;45749;51.140;17.184;2023-03-20T05:02:41;100094.47;;;9.54;89.30
59877;BME280;45749;51.140;17.184;2023-03-20T05:05:07;100097.97;;;9.54;89.08
59877;BME280;45749;51.140;17.184;2023-03-20T05:07:32;100104.09;;;9.55;89.04
59877;BME280;45749;51.140;17.184;2023-03-20T05:09:58;100097.84;;;9.56;88.84
59877;BME280;45749;51.140;17.184;2023-03-20T05:12:24;100098.47;;;9.59;88.71
59877;BME280;45749;51.140;17.184;2023-03-20T05:14:52;100100.28;;;9.59;88.82
59877;BME280;45749;51.140;17.184;2023-03-20T05:17:21;100096.56;;;9.61;88.56
59877;BME280;45749;51.140;17.184;2023-03-20T05:19:47;100104.34;;;9.63;88.44
59877;BME280;45749;51.140;17.184;2023-03-20T05:22:15;100102.47;;;9.65;88.22
59877;BME280;45749;51.140;17.184;2023-03-20T05:24:40;100097.91;;;9.67;88.25
59877;BME280;45749;51.140;17.184;2023-03-20T05:27:05;100097.91;;;9.67;88.16
59877;BME280;45749;51.140;17.184;2023-03-20T05:29:31;100103.91;;;9.69;88.23
59877;BME280;45749;51.140;17.184;2023-03-20T05:31:56;100102.25;;;9.68;87.94
59877;BME280;45749;51.140;17.184;2023-03-20T05:34:22;100101.28;;;9.69;88.12
59877;BME280;45749;51.140;17.184;2023-03-20T05:36:47;100100.31;;;9.70;88.39
59877;BME280;45749;51.140;17.184;2023-03-20T05:39:13;100107.38;;;9.70;88.29
59877;BME280;45749;51.140;17.184;2023-03-20T05:41:38;100115.28;;;9.70;88.64
59877;BME280;45749;51.140;17.184;2023-03-20T05:44:04;100114.47;;;9.69;88.52
59877;BME280;45749;51.140;17.184;2023-03-20T05:46:30;100114.38;;;9.71;88.39
59877;BME280;45749;51.140;17.184;2023-03-20T05:48:55;100113.28;;;9.73;88.49
59877;BME280;45749;51.140;17.184;2023-03-20T05:51:21;100108.75;;;9.75;88.54
59877;BME280;45749;51.140;17.184;2023-03-20T05:53:46;100116.66;;;9.75;88.92
59877;BME280;45749;51.140;17.184;2023-03-20T05:56:11;100120.88;;;9.78;89.03
59877;BME280;45749;51.140;17.184;2023-03-20T05:58:37;100127.69;;;9.80;88.84
59877;BME280;45749;51.140;17.184;2023-03-20T06:01:03;100119.56;;;9.83;88.95
59877;BME280;45749;51.140;17.184;2023-03-20T06:03:28;100119.47;;;9.85;89.00
59877;BME280;45749;51.140;17.184;2023-03-20T06:05:54;100120.31;;;9.85;89.26
59877;BME280;45749;51.140;17.184;2023-03-20T06:08:19;100122.94;;;9.85;89.64
59877;BME280;45749;51.140;17.184;2023-03-20T06:10:45;100120.31;;;9.85;89.42
59877;BME280;45749;51.140;17.184;2023-03-20T06:13:10;100118.28;;;9.89;89.57
59877;BME280;45749;51.140;17.184;2023-03-20T06:15:35;100121.66;;;9.91;90.06
59877;BME280;45749;51.140;17.184;2023-03-20T06:18:01;100122.50;;;9.92;90.06
59877;BME280;45749;51.140;17.184;2023-03-20T06:20:26;100125.00;;;9.93;90.20
59877;BME280;45749;51.140;17.184;2023-03-20T06:22:52;100130.88;;;9.97;90.06
59877;BME280;45749;51.140;17.184;2023-03-20T06:25:18;100127.31;;;9.98;90.21
59877;BME280;45749;51.140;17.184;2023-03-20T06:27:46;100134.25;;;9.99;90.76
59877;BME280;45749;51.140;17.184;2023-03-20T06:30:13;100132.59;;;9.98;90.56
59877;BME280;45749;51.140;17.184;2023-03-20T06:32:38;100135.72;;;10.03;90.58
59877;BME280;45749;51.140;17.184;2023-03-20T06:35:05;100138.97;;;10.06;90.73
59877;BME280;45749;51.140;17.184;2023-03-20T06:37:32;100143.19;;;10.09;90.94
59877;BME280;45749;51.140;17.184;2023-03-20T06:39:57;100142.22;;;10.10;91.22
59877;BME280;45749;51.140;17.184;2023-03-20T06:42:23;100142.13;;;10.12;91.25
59877;BME280;45749;51.140;17.184;2023-03-20T06:44:49;100146.34;;;10.14;91.49
59877;BME280;45749;51.140;17.184;2023-03-20T06:47:15;100140.22;;;10.14;91.35
59877;BME280;45749;51.140;17.184;2023-03-20T06:49:40;100144.19;;;10.19;91.58
59877;BME280;45749;51.140;17.184;2023-03-20T06:52:06;100150.19;;;10.21;91.67
59877;BME280;45749;51.140;17.184;2023-03-20T06:54:33;100139.66;;;10.21;92.17
59877;BME280;45749;51.140;17.184;2023-03-20T06:56:58;100148.41;;;10.22;92.28
59877;BME280;45749;51.140;17.184;2023-03-20T06:59:24;100147.44;;;10.23;92.58
59877;BME280;45749;51.140;17.184;2023-03-20T07:01:49;100144.78;;;10.23;92.54
59877;BME280;45749;51.140;17.184;2023-03-20T07:04:14;100142.91;;;10.25;92.48
59877;BME280;45749;51.140;17.184;2023-03-20T07:06:41;100143.66;;;10.27;92.90
59877;BME280;45749;51.140;17.184;2023-03-20T07:09:07;100150.38;;;10.31;93.07
59877;BME280;45749;51.140;17.184;2023-03-20T07:11:32;100142.47;;;10.31;92.91
59877;BME280;45749;51.140;17.184;2023-03-20T07:13:58;100144.97;;;10.32;93.26
59877;BME280;45749;51.140;17.184;2023-03-20T07:16:25;100152.06;;;10.32;93.35
59877;BME280;45749;51.140;17.184;2023-03-20T07:18:50;100151.97;;;10.33;93.28
59877;BME280;45749;51.140;17.184;2023-03-20T07:21:18;100154.47;;;10.35;93.25
59877;BME280;45749;51.140;17.184;2023-03-20T07:23:44;100156.03;;;10.38;93.46
59877;BME280;45749;51.140;17.184;2023-03-20T07:26:09;100149.81;;;10.39;93.77
59877;BME280;45749;51.140;17.184;2023-03-20T07:28:35;100156.88;;;10.38;93.63
59877;BME280;45749;51.140;17.184;2023-03-20T07:31:00;100156.88;;;10.38;93.89
59877;BME280;45749;51.140;17.184;2023-03-20T07:33:26;100158.69;;;10.38;93.86
59877;BME280;45749;51.140;17.184;2023-03-20T07:35:53;100156.66;;;10.41;93.97
59877;BME280;45749;51.140;17.184;2023-03-20T07:38:19;100158.22;;;10.44;93.65
59877;BME280;45749;51.140;17.184;2023-03-20T07:40:45;100159.81;;;10.46;93.72
59877;BME280;45749;51.140;17.184;2023-03-20T07:43:16;100155.38;;;10.47;93.96
59877;BME280;45749;51.140;17.184;2023-03-20T07:45:42;100155.47;;;10.45;94.15
59877;BME280;45749;51.140;17.184;2023-03-20T07:48:07;100154.53;;;10.46;94.07
59877;BME280;45749;51.140;17.184;2023-03-20T07:50:33;100163.28;;;10.47;93.99
59877;BME280;45749;51.140;17.184;2023-03-20T07:52:58;100165.09;;;10.46;94.54
59877;BME280;45749;51.140;17.184;2023-03-20T07:55:23;100165.19;;;10.45;94.82
59877;BME280;45749;51.140;17.184;2023-03-20T07:57:49;100166.25;;;10.42;95.14
59877;BME280;45749;51.140;17.184;2023-03-20T08:00:17;100158.34;;;10.42;94.95
59877;BME280;45749;51.140;17.184;2023-03-20T08:02:43;100165.69;;;10.50;94.84
59877;BME280;45749;51.140;17.184;2023-03-20T08:05:08;100161.03;;;10.53;95.14
59877;BME280;45749;51.140;17.184;2023-03-20T08:07:34;100164.97;;;10.59;95.09
59877;BME280;45749;51.140;17.184;2023-03-20T08:10:00;100166.31;;;10.65;95.12
59877;BME280;45749;51.140;17.184;2023-03-20T08:12:26;100171.38;;;10.68;95.52
59877;BME280;45749;51.140;17.184;2023-03-20T08:14:51;100169.34;;;10.71;95.34
59877;BME280;45749;51.140;17.184;2023-03-20T08:17:17;100178.00;;;10.73;95.34
59877;BME280;45749;51.140;17.184;2023-03-20T08:19:42;100175.22;;;10.75;95.11
59877;BME280;45749;51.140;17.184;2023-03-20T08:22:08;100174.28;;;10.76;95.31
59877;BME280;45749;51.140;17.184;2023-03-20T08:24:34;100174.03;;;10.79;95.39
59877;BME280;45749;51.140;17.184;2023-03-20T08:26:59;100170.56;;;10.78;95.39
59877;BME280;45749;51.140;17.184;2023-03-20T08:29:25;100176.66;;;10.79;95.25
59877;BME280;45749;51.140;17.184;2023-03-20T08:31:50;100172.03;;;10.83;95.46
59877;BME280;45749;51.140;17.184;2023-03-20T08:34:16;100181.63;;;10.84;95.36
59877;BME280;45749;51.140;17.184;2023-03-20T08:36:41;100181.38;;;10.87;95.18
59877;BME280;45749;51.140;17.184;2023-03-20T08:39:07;100182.22;;;10.87;95.04
59877;BME280;45749;51.140;17.184;2023-03-20T08:41:35;100182.09;;;10.89;94.93
59877;BME280;45749;51.140;17.184;2023-03-20T08:44:03;100182.81;;;10.91;95.06
59877;BME280;45749;51.140;17.184;2023-03-20T08:46:28;100183.66;;;10.91;94.67
59877;BME280;45749;51.140;17.184;2023-03-20T08:48:54;100187.13;;;10.92;94.55
59877;BME280;45749;51.140;17.184;2023-03-20T08:51:20;100187.13;;;10.92;94.56
59877;BME280;45749;51.140;17.184;2023-03-20T08:53:45;100190.50;;;10.94;94.37
59877;BME280;45749;51.140;17.184;2023-03-20T08:56:10;100190.50;;;10.94;94.30
59877;BME280;45749;51.140;17.184;2023-03-20T08:58:36;100196.03;;;10.91;94.11
59877;BME280;45749;51.140;17.184;2023-03-20T09:01:06;100193.38;;;10.91;93.91
59877;BME280;45749;51.140;17.184;2023-03-20T09:03:32;100194.22;;;10.91;93.67
59877;BME280;45749;51.140;17.184;2023-03-20T09:05:57;100193.38;;;10.91;93.53
59877;BME280;45749;51.140;17.184;2023-03-20T09:08:23;100192.41;;;10.92;93.46
59877;BME280;45749;51.140;17.184;2023-03-20T09:10:49;100195.06;;;10.92;93.30
59877;BME280;45749;51.140;17.184;2023-03-20T09:13:15;100196.16;;;10.89;92.93
59877;BME280;45749;51.140;17.184;2023-03-20T09:15:40;100193.63;;;10.88;92.76
59877;BME280;45749;51.140;17.184;2023-03-20T09:18:06;100197.09;;;10.88;92.98
59877;BME280;45749;51.140;17.184;2023-03-20T09:20:31;100196.25;;;10.88;92.75
59877;BME280;45749;51.140;17.184;2023-03-20T09:22:56;100197.00;;;10.90;92.88
59877;BME280;45749;51.140;17.184;2023-03-20T09:25:22;100190.75;;;10.91;92.75
59877;BME280;45749;51.140;17.184;2023-03-20T09:27:50;100192.41;;;10.92;92.61
59877;BME280;45749;51.140;17.184;2023-03-20T09:30:16;100192.41;;;10.92;92.58
59877;BME280;45749;51.140;17.184;2023-03-20T09:32:41;100195.78;;;10.94;92.52
59877;BME280;45749;51.140;17.184;2023-03-20T09:35:07;100194.00;;;10.94;92.60
59877;BME280;45749;51.140;17.184;2023-03-20T09:37:33;100191.34;;;10.94;92.33
59877;BME280;45749;51.140;17.184;2023-03-20T09:39:58;100194.59;;;10.98;92.64
59877;BME280;45749;51.140;17.184;2023-03-20T09:45:11;100193.16;;;11.05;92.71
59877;BME280;45749;51.140;17.184;2023-03-20T09:52:51;100185.97;;;11.18;92.84
59877;BME280;45749;51.140;17.184;2023-03-20T09:55:22;100194.50;;;11.22;92.83
59877;BME280;45749;51.140;17.184;2023-03-20T09:57:52;100187.22;;;11.25;92.51
59877;BME280;45749;51.140;17.184;2023-03-20T10:00:28;100184.31;;;11.28;92.34
59877;BME280;45749;51.140;17.184;2023-03-20T10:03:01;100184.06;;;11.32;92.63
59877;BME280;45749;51.140;17.184;2023-03-20T10:05:41;100180.47;;;11.33;92.10
59877;BME280;45749;51.140;17.184;2023-03-20T10:08:13;100186.59;;;11.33;91.85
59877;BME280;45749;51.140;17.184;2023-03-20T10:19:42;100176.50;;;11.49;92.21
59877;BME280;45749;51.140;17.184;2023-03-20T10:22:23;100178.69;;;11.56;91.93
59877;BME280;45749;51.140;17.184;2023-03-20T10:27:43;100167.63;;;11.62;91.88
59877;BME280;45749;51.140;17.184;2023-03-20T10:40:51;100156.88;;;12.08;91.61
59877;BME280;45749;51.140;17.184;2023-03-20T10:43:23;100154.13;;;12.31;93.55
59877;BME280;45749;51.140;17.184;2023-03-20T10:45:56;100154.56;;;12.47;91.68
59877;BME280;45749;51.140;17.184;2023-03-20T10:48:28;100151.94;;;12.57;91.00
59877;BME280;45749;51.140;17.184;2023-03-20T10:50:58;100145.88;;;12.66;90.68
59877;BME280;45749;51.140;17.184;2023-03-20T10:53:29;100149.84;;;12.72;90.80
59877;BME280;45749;51.140;17.184;2023-03-20T10:55:58;100143.56;;;12.73;89.85
59877;BME280;45749;51.140;17.184;2023-03-20T10:58:27;100144.41;;;12.73;90.20
59877;BME280;45749;51.140;17.184;2023-03-20T11:00:55;100143.31;;;12.76;89.67
59877;BME280;45749;51.140;17.184;2023-03-20T11:03:24;100145.13;;;12.75;89.40
59877;BME280;45749;51.140;17.184;2023-03-20T11:05:54;100142.34;;;12.77;89.48
59877;BME280;45749;51.140;17.184;2023-03-20T11:08:24;100134.59;;;12.85;90.35
59877;BME280;45749;51.140;17.184;2023-03-20T11:11:00;100133.81;;;12.94;89.93
59877;BME280;45749;51.140;17.184;2023-03-20T11:15:55;100143.63;;;13.03;88.80
59877;BME280;45749;51.140;17.184;2023-03-20T11:18:24;100134.44;;;13.07;89.21
59877;BME280;45749;51.140;17.184;2023-03-20T11:20:52;100135.00;;;13.11;88.79
59877;BME280;45749;51.140;17.184;2023-03-20T11:23:31;100131.00;;;13.17;88.75
59877;BME280;45749;51.140;17.184;2023-03-20T11:28:34;100140.16;;;13.33;88.31
59877;BME280;45749;51.140;17.184;2023-03-20T11:31:14;100138.09;;;13.37;87.59
59877;BME280;45749;51.140;17.184;2023-03-20T11:34:06;100129.88;;;13.40;87.69
59877;BME280;45749;51.140;17.184;2023-03-20T11:36:33;100135.00;;;13.42;87.09
59877;BME280;45749;51.140;17.184;2023-03-20T11:39:23;100135.47;;;13.47;86.74
59877;BME280;45749;51.140;17.184;2023-03-20T11:41:51;100129.75;;;13.51;86.42
59877;BME280;45749;51.140;17.184;2023-03-20T11:44:32;100129.22;;;13.57;87.44
59877;BME280;45749;51.140;17.184;2023-03-20T11:47:03;100125.75;;;13.67;87.09
59877;BME280;45749;51.140;17.184;2023-03-20T11:49:31;100130.38;;;13.74;86.65
59877;BME280;45749;51.140;17.184;2023-03-20T11:52:02;100119.38;;;13.79;86.92
59877;BME280;45749;51.140;17.184;2023-03-20T11:54:36;100127.63;;;13.86;86.79
59877;BME280;45749;51.140;17.184;2023-03-20T11:57:04;100114.09;;;13.89;86.12
59877;BME280;45749;51.140;17.184;2023-03-20T11:59:33;100114.38;;;13.95;86.27
59877;BME280;45749;51.140;17.184;2023-03-20T12:02:02;100112.13;;;14.00;85.35
59877;BME280;45749;51.140;17.184;2023-03-20T12:04:32;100119.38;;;14.08;85.72
59877;BME280;45749;51.140;17.184;2023-03-20T12:07:21;100105.72;;;14.13;85.39
59877;BME280;45749;51.140;17.184;2023-03-20T12:12:26;100108.63;;;14.29;85.49
59877;BME280;45749;51.140;17.184;2023-03-20T12:17:56;100108.19;;;14.43;83.37
59877;BME280;45749;51.140;17.184;2023-03-20T12:20:35;100103.16;;;14.40;83.08
59877;BME280;45749;51.140;17.184;2023-03-20T12:25:58;100089.63;;;14.43;83.67
59877;BME280;45749;51.140;17.184;2023-03-20T12:28:39;100093.97;;;14.54;84.22
59877;BME280;45749;51.140;17.184;2023-03-20T12:33:53;100086.41;;;14.69;82.62
59877;BME280;45749;51.140;17.184;2023-03-20T12:36:48;100090.44;;;14.73;82.38
59877;BME280;45749;51.140;17.184;2023-03-20T12:39:21;100094.06;;;14.82;81.35
59877;BME280;45749;51.140;17.184;2023-03-20T12:42:21;100080.31;;;14.86;81.38
59877;BME280;45749;51.140;17.184;2023-03-20T12:45:07;100081.03;;;14.88;82.40
59877;BME280;45749;51.140;17.184;2023-03-20T12:50:34;100078.47;;;14.96;81.76
59877;BME280;45749;51.140;17.184;2023-03-20T12:58:30;100081.16;;;14.87;82.40
59877;BME280;45749;51.140;17.184;2023-03-20T13:01:31;100072.09;;;14.80;83.18
59877;BME280;45749;51.140;17.184;2023-03-20T13:06:55;100061.78;;;14.67;83.98
59877;BME280;45749;51.140;17.184;2023-03-20T13:12:06;100058.75;;;14.62;83.91
59877;BME280;45749;51.140;17.184;2023-03-20T13:17:31;100057.06;;;14.61;83.79
59877;BME280;45749;51.140;17.184;2023-03-20T13:20:32;100058.88;;;14.60;84.19
59877;BME280;45749;51.140;17.184;2023-03-20T13:31:50;100061.81;;;14.47;84.53
59877;BME280;45749;51.140;17.184;2023-03-20T13:39:30;100064.06;;;14.42;84.77
59877;BME280;45749;51.140;17.184;2023-03-20T13:41:58;100074.25;;;14.37;84.94
59877;BME280;45749;51.140;17.184;2023-03-20T13:44:26;100091.34;;;14.25;85.01
59877;BME280;45749;51.140;17.184;2023-03-20T13:46:59;100081.56;;;14.06;84.89
59877;BME280;45749;51.140;17.184;2023-03-20T13:49:36;100063.25;;;13.83;85.29
59877;BME280;45749;51.140;17.184;2023-03-20T13:55:13;99998.75;;;13.54;84.77
59877;BME280;45749;51.140;17.184;2023-03-20T14:03:10;100026.59;;;13.29;86.23
59877;BME280;45749;51.140;17.184;2023-03-20T14:05:40;100025.91;;;13.27;87.71
59877;BME280;45749;51.140;17.184;2023-03-20T14:11:27;100024.66;;;13.31;89.25
59877;BME280;45749;51.140;17.184;2023-03-20T14:14:12;100029.00;;;13.42;89.83
59877;BME280;45749;51.140;17.184;2023-03-20T14:16:39;100019.13;;;13.44;90.45
59877;BME280;45749;51.140;17.184;2023-03-20T14:19:18;100013.56;;;13.56;90.71
59877;BME280;45749;51.140;17.184;2023-03-20T14:21:50;100012.72;;;13.66;90.64
59877;BME280;45749;51.140;17.184;2023-03-20T14:24:17;100011.47;;;13.70;90.21
59877;BME280;45749;51.140;17.184;2023-03-20T14:26:55;100019.56;;;13.78;90.90
59877;BME280;45749;51.140;17.184;2023-03-20T14:32:02;100016.22;;;13.95;89.45
59877;BME280;45749;51.140;17.184;2023-03-20T14:37:57;100012.72;;;13.95;89.32
59877;BME280;45749;51.140;17.184;2023-03-20T14:40:28;100026.13;;;13.93;89.16
59877;BME280;45749;51.140;17.184;2023-03-20T14:43:04;100026.69;;;13.87;88.60
59877;BME280;45749;51.140;17.184;2023-03-20T14:48:13;100037.16;;;13.79;88.64
59877;BME280;45749;51.140;17.184;2023-03-20T14:50:48;100056.28;;;13.73;88.31
59877;BME280;45749;51.140;17.184;2023-03-20T14:53:22;100057.53;;;13.59;87.23
59877;BME280;45749;51.140;17.184;2023-03-20T14:55:52;100051.91;;;13.43;87.50
59877;BME280;45749;51.140;17.184;2023-03-20T14:58:45;100060.03;;;13.20;87.00
59877;BME280;45749;51.140;17.184;2023-03-20T15:03:51;100063.25;;;12.93;87.88
59877;BME280;45749;51.140;17.184;2023-03-20T15:06:19;100058.50;;;12.87;87.82
59877;BME280;45749;51.140;17.184;2023-03-20T15:08:57;100062.13;;;12.86;88.09
59877;BME280;45749;51.140;17.184;2023-03-20T15:11:25;100046.44;;;12.73;87.74
59877;BME280;45749;51.140;17.184;2023-03-20T15:13:51;100054.78;;;12.68;87.64
59877;BME280;45749;51.140;17.184;2023-03-20T15:16:26;100056.97;;;12.63;88.04
59877;BME280;45749;51.140;17.184;2023-03-20T15:18:53;100050.28;;;12.59;87.96
59877;BME280;45749;51.140;17.184;2023-03-20T15:21:32;100052.09;;;12.59;88.25